sensor_id;sensor_type;location;lat;lon;timestamp;temperature;humidity
70986;DHT22;58645;43.068;25.610;2024-03-23T00:55:42;2.70;99.90
70986;DHT22;58645;43.068;25.610;2024-03-23T00:58:08;2.60;99.90
70986;DHT22;58645;43.068;25.610;2024-03-23T01:00:34;2.60;99.90
70986;DHT22;58645;43.068;25.610;2024-03-23T01:03:00;2.60;99.90
70986;DHT22;58645;43.068;25.610;2024-03-23T01:05:25;2.60;99.90
70986;DHT22;58645;43.068;25.610;2024-03-23T01:07:51;2.50;99.90
70986;DHT22;58645;43.068;25.610;2024-03-23T01:10:17;2.50;99.90
70986;DHT22;58645;43.068;25.610;2024-03-23T01:12:43;2.40;99.90
70986;DHT22;58645;43.068;25.610;2024-03-23T01:15:08;2.40;99.90
70986;DHT22;58645;43.068;25.610;2024-03-23T01:17:34;2.30;99.90
70986;DHT22;58645;43.068;25.610;2024-03-23T01:20:00;2.40;99.90
70986;DHT22;58645;43.068;25.610;2024-03-23T01:22:26;2.30;99.90
70986;DHT22;58645;43.068;25.610;2024-03-23T01:24:51;2.30;99.90
70986;DHT22;58645;43.068;25.610;2024-03-23T01:27:17;2.20;99.90
70986;DHT22;58645;43.068;25.610;2024-03-23T01:29:43;2.20;99.90
70986;DHT22;58645;43.068;25.610;2024-03-23T01:32:09;2.20;99.90
70986;DHT22;58645;43.068;25.610;2024-03-23T01:34:35;2.20;99.90
70986;DHT22;58645;43.068;25.610;2024-03-23T01:37:01;2.20;99.90
70986;DHT22;58645;43.068;25.610;2024-03-23T01:39:27;2.20;99.90
70986;DHT22;58645;43.068;25.610;2024-03-23T01:41:53;2.20;99.90
70986;DHT22;58645;43.068;25.610;2024-03-23T01:44:18;2.20;99.90
70986;DHT22;58645;43.068;25.610;2024-03-23T01:46:44;2.10;99.90
70986;DHT22;58645;43.068;25.610;2024-03-23T01:49:11;2.10;99.90
70986;DHT22;58645;43.068;25.610;2024-03-23T01:51:37;2.10;99.90
70986;DHT22;58645;43.068;25.610;2024-03-23T01:54:03;2.00;99.90
70986;DHT22;58645;43.068;25.610;2024-03-23T01:56:30;2.00;99.90
70986;DHT22;58645;43.068;25.610;2024-03-23T01:58:58;1.90;99.90
70986;DHT22;58645;43.068;25.610;2024-03-23T02:01:24;1.80;99.90
70986;DHT22;58645;43.068;25.610;2024-03-23T02:03:49;1.80;99.90
70986;DHT22;58645;43.068;25.610;2024-03-23T02:06:15;1.80;99.90
70986;DHT22;58645;43.068;25.610;2024-03-23T02:08:41;1.80;99.90
70986;DHT22;58645;43.068;25.610;2024-03-23T02:11:07;1.70;99.90
70986;DHT22;58645;43.068;25.610;2024-03-23T02:13:32;1.70;99.90
70986;DHT22;58645;43.068;25.610;2024-03-23T02:15:58;1.60;99.90
70986;DHT22;58645;43.068;25.610;2024-03-23T02:18:24;1.70;99.90
70986;DHT22;58645;43.068;25.610;2024-03-23T02:20:50;1.70;99.90
70986;DHT22;58645;43.068;25.610;2024-03-23T02:23:16;1.70;99.90
70986;DHT22;58645;43.068;25.610;2024-03-23T02:25:42;1.70;99.90
70986;DHT22;58645;43.068;25.610;2024-03-23T02:28:08;1.60;99.90
70986;DHT22;58645;43.068;25.610;2024-03-23T02:30:33;1.60;99.90
70986;DHT22;58645;43.068;25.610;2024-03-23T02:32:59;1.60;99.90
70986;DHT22;58645;43.068;25.610;2024-03-23T02:35:25;1.60;99.90
70986;DHT22;58645;43.068;25.610;2024-03-23T02:37:51;1.60;99.90
70986;DHT22;58645;43.068;25.610;2024-03-23T02:40:17;1.50;99.90
70986;DHT22;58645;43.068;25.610;2024-03-23T02:42:43;1.50;99.90
70986;DHT22;58645;43.068;25.610;2024-03-23T02:45:09;1.50;99.90
70986;DHT22;58645;43.068;25.610;2024-03-23T02:47:35;1.40;99.90
70986;DHT22;58645;43.068;25.610;2024-03-23T02:50:01;1.40;99.90
70986;DHT22;58645;43.068;25.610;2024-03-23T02:52:26;1.30;99.90
70986;DHT22;58645;43.068;25.610;2024-03-23T02:54:52;1.20;99.90
70986;DHT22;58645;43.068;25.610;2024-03-23T02:57:18;1.20;99.90
70986;DHT22;58645;43.068;25.610;2024-03-23T02:59:44;1.20;99.90
70986;DHT22;58645;43.068;25.610;2024-03-23T03:02:11;1.20;99.90
70986;DHT22;58645;43.068;25.610;2024-03-23T03:04:36;1.20;99.90
70986;DHT22;58645;43.068;25.610;2024-03-23T03:07:02;1.10;99.90
70986;DHT22;58645;43.068;25.610;2024-03-23T03:09:28;1.10;99.90
70986;DHT22;58645;43.068;25.610;2024-03-23T03:11:53;1.10;99.90
70986;DHT22;58645;43.068;25.610;2024-03-23T03:14:19;1.10;99.90
70986;DHT22;58645;43.068;25.610;2024-03-23T03:16:45;1.00;99.90
70986;DHT22;58645;43.068;25.610;2024-03-23T03:19:11;1.00;99.90
70986;DHT22;58645;43.068;25.610;2024-03-23T03:21:37;1.00;99.90
70986;DHT22;58645;43.068;25.610;2024-03-23T03:24:05;0.90;99.90
70986;DHT22;58645;43.068;25.610;2024-03-23T03:26:31;0.90;99.90
70986;DHT22;58645;43.068;25.610;2024-03-23T03:28:57;0.90;99.90
70986;DHT22;58645;43.068;25.610;2024-03-23T03:31:23;0.90;99.90
70986;DHT22;58645;43.068;25.610;2024-03-23T03:33:50;0.90;99.90
70986;DHT22;58645;43.068;25.610;2024-03-23T03:36:16;0.80;99.90
70986;DHT22;58645;43.068;25.610;2024-03-23T03:38:42;0.80;99.90
70986;DHT22;58645;43.068;25.610;2024-03-23T03:41:08;0.80;99.90
70986;DHT22;58645;43.068;25.610;2024-03-23T03:43:34;0.80;99.90
70986;DHT22;58645;43.068;25.610;2024-03-23T03:46:00;0.80;99.90
70986;DHT22;58645;43.068;25.610;2024-03-23T03:48:26;0.80;99.90
70986;DHT22;58645;43.068;25.610;2024-03-23T03:50:53;0.70;99.90
70986;DHT22;58645;43.068;25.610;2024-03-23T03:53:19;0.80;99.90
70986;DHT22;58645;43.068;25.610;2024-03-23T03:55:45;0.80;99.90
70986;DHT22;58645;43.068;25.610;2024-03-23T03:58:10;0.80;99.90
70986;DHT22;58645;43.068;25.610;2024-03-23T04:00:36;0.70;99.90
70986;DHT22;58645;43.068;25.610;2024-03-23T04:03:02;0.70;99.90
70986;DHT22;58645;43.068;25.610;2024-03-23T04:05:28;0.60;99.90
70986;DHT22;58645;43.068;25.610;2024-03-23T04:07:54;0.60;99.90
70986;DHT22;58645;43.068;25.610;2024-03-23T04:10:20;0.60;99.90
70986;DHT22;58645;43.068;25.610;2024-03-23T04:12:47;0.60;99.90
70986;DHT22;58645;43.068;25.610;2024-03-23T04:15:13;0.60;99.90
70986;DHT22;58645;43.068;25.610;2024-03-23T04:17:39;0.50;99.90
70986;DHT22;58645;43.068;25.610;2024-03-23T04:20:07;0.50;99.90
70986;DHT22;58645;43.068;25.610;2024-03-23T04:22:34;0.50;99.90
70986;DHT22;58645;43.068;25.610;2024-03-23T04:25:00;0.50;99.90
70986;DHT22;58645;43.068;25.610;2024-03-23T04:27:41;0.50;99.90
70986;DHT22;58645;43.068;25.610;2024-03-23T04:30:07;0.50;99.90
70986;DHT22;58645;43.068;25.610;2024-03-23T04:32:40;0.60;99.90
70986;DHT22;58645;43.068;25.610;2024-03-23T04:35:06;0.60;99.90
70986;DHT22;58645;43.068;25.610;2024-03-23T04:37:35;0.60;99.90
70986;DHT22;58645;43.068;25.610;2024-03-23T04:40:02;0.60;99.90
70986;DHT22;58645;43.068;25.610;2024-03-23T04:42:29;0.70;99.90
70986;DHT22;58645;43.068;25.610;2024-03-23T04:44:54;0.70;99.90
70986;DHT22;58645;43.068;25.610;2024-03-23T04:47:20;0.70;99.90
70986;DHT22;58645;43.068;25.610;2024-03-23T04:49:46;0.80;99.90
70986;DHT22;58645;43.068;25.610;2024-03-23T04:52:12;0.80;99.90
70986;DHT22;58645;43.068;25.610;2024-03-23T04:54:38;0.90;99.90
70986;DHT22;58645;43.068;25.610;2024-03-23T04:57:06;1.00;99.90
70986;DHT22;58645;43.068;25.610;2024-03-23T04:59:32;1.10;99.90
70986;DHT22;58645;43.068;25.610;2024-03-23T05:01:58;1.10;99.90
70986;DHT22;58645;43.068;25.610;2024-03-23T05:04:25;1.30;99.90
70986;DHT22;58645;43.068;25.610;2024-03-23T05:06:51;1.50;99.90
70986;DHT22;58645;43.068;25.610;2024-03-23T05:09:16;1.70;99.90
70986;DHT22;58645;43.068;25.610;2024-03-23T05:11:42;2.00;99.90
70986;DHT22;58645;43.068;25.610;2024-03-23T05:14:08;2.80;99.90
70986;DHT22;58645;43.068;25.610;2024-03-23T05:16:34;3.90;99.90
70986;DHT22;58645;43.068;25.610;2024-03-23T05:18:59;4.90;99.90
70986;DHT22;58645;43.068;25.610;2024-03-23T05:21:26;5.80;99.90
70986;DHT22;58645;43.068;25.610;2024-03-23T05:23:54;6.50;99.90
70986;DHT22;58645;43.068;25.610;2024-03-23T05:26:21;7.40;99.90
70986;DHT22;58645;43.068;25.610;2024-03-23T05:28:47;8.20;95.80
70986;DHT22;58645;43.068;25.610;2024-03-23T05:31:23;8.80;88.50
70986;DHT22;58645;43.068;25.610;2024-03-23T05:33:49;9.50;83.80
70986;DHT22;58645;43.068;25.610;2024-03-23T05:36:14;9.90;79.80
70986;DHT22;58645;43.068;25.610;2024-03-23T05:38:40;10.20;76.80
70986;DHT22;58645;43.068;25.610;2024-03-23T05:41:06;10.50;75.10
70986;DHT22;58645;43.068;25.610;2024-03-23T05:43:31;10.90;73.20
70986;DHT22;58645;43.068;25.610;2024-03-23T05:46:01;11.40;69.50
70986;DHT22;58645;43.068;25.610;2024-03-23T05:48:36;11.80;68.40
70986;DHT22;58645;43.068;25.610;2024-03-23T05:51:02;12.10;66.80
70986;DHT22;58645;43.068;25.610;2024-03-23T05:53:28;12.40;65.40
70986;DHT22;58645;43.068;25.610;2024-03-23T05:56:02;12.70;64.00
70986;DHT22;58645;43.068;25.610;2024-03-23T05:58:32;13.10;63.00
70986;DHT22;58645;43.068;25.610;2024-03-23T06:01:02;13.30;61.50
70986;DHT22;58645;43.068;25.610;2024-03-23T06:03:28;13.60;61.00
70986;DHT22;58645;43.068;25.610;2024-03-23T06:05:55;13.80;58.60
70986;DHT22;58645;43.068;25.610;2024-03-23T06:08:21;13.90;58.00
70986;DHT22;58645;43.068;25.610;2024-03-23T06:10:47;14.20;56.60
70986;DHT22;58645;43.068;25.610;2024-03-23T06:13:13;14.30;56.30
70986;DHT22;58645;43.068;25.610;2024-03-23T06:15:39;14.50;56.20
70986;DHT22;58645;43.068;25.610;2024-03-23T06:18:05;14.70;54.70
70986;DHT22;58645;43.068;25.610;2024-03-23T06:20:31;14.80;54.40
70986;DHT22;58645;43.068;25.610;2024-03-23T06:22:57;14.80;53.40
70986;DHT22;58645;43.068;25.610;2024-03-23T06:25:23;14.60;52.50
70986;DHT22;58645;43.068;25.610;2024-03-23T06:27:49;14.70;53.40
70986;DHT22;58645;43.068;25.610;2024-03-23T06:30:14;15.00;53.40
70986;DHT22;58645;43.068;25.610;2024-03-23T06:32:40;15.40;52.80
70986;DHT22;58645;43.068;25.610;2024-03-23T06:35:06;15.80;52.10
70986;DHT22;58645;43.068;25.610;2024-03-23T06:37:35;16.10;50.50
70986;DHT22;58645;43.068;25.610;2024-03-23T06:40:01;16.20;50.40
70986;DHT22;58645;43.068;25.610;2024-03-23T06:42:27;16.70;50.10
70986;DHT22;58645;43.068;25.610;2024-03-23T06:44:53;17.00;49.70
70986;DHT22;58645;43.068;25.610;2024-03-23T06:47:19;17.30;48.00
70986;DHT22;58645;43.068;25.610;2024-03-23T06:49:45;17.50;47.60
70986;DHT22;58645;43.068;25.610;2024-03-23T06:52:10;17.70;47.20
70986;DHT22;58645;43.068;25.610;2024-03-23T06:54:36;18.20;46.10
70986;DHT22;58645;43.068;25.610;2024-03-23T06:57:02;18.80;45.20
70986;DHT22;58645;43.068;25.610;2024-03-23T06:59:28;19.20;43.10
70986;DHT22;58645;43.068;25.610;2024-03-23T07:01:54;19.40;42.00
70986;DHT22;58645;43.068;25.610;2024-03-23T07:04:19;19.80;41.50
70986;DHT22;58645;43.068;25.610;2024-03-23T07:06:45;20.30;40.90
70986;DHT22;58645;43.068;25.610;2024-03-23T07:09:11;20.80;39.20
70986;DHT22;58645;43.068;25.610;2024-03-23T07:11:37;20.70;38.20
70986;DHT22;58645;43.068;25.610;2024-03-23T07:14:03;21.00;39.20
70986;DHT22;58645;43.068;25.610;2024-03-23T07:16:29;21.50;38.20
70986;DHT22;58645;43.068;25.610;2024-03-23T07:18:55;22.00;37.50
70986;DHT22;58645;43.068;25.610;2024-03-23T07:21:21;22.10;35.50
70986;DHT22;58645;43.068;25.610;2024-03-23T07:23:47;22.20;34.60
70986;DHT22;58645;43.068;25.610;2024-03-23T07:26:13;22.40;35.00
70986;DHT22;58645;43.068;25.610;2024-03-23T07:28:39;22.70;35.50
70986;DHT22;58645;43.068;25.610;2024-03-23T07:31:10;23.10;33.30
70986;DHT22;58645;43.068;25.610;2024-03-23T07:33:48;23.30;34.40
70986;DHT22;58645;43.068;25.610;2024-03-23T07:36:14;23.40;35.10
70986;DHT22;58645;43.068;25.610;2024-03-23T07:38:43;23.60;34.20
70986;DHT22;58645;43.068;25.610;2024-03-23T07:41:14;23.70;33.20
70986;DHT22;58645;43.068;25.610;2024-03-23T07:43:40;24.00;33.50
70986;DHT22;58645;43.068;25.610;2024-03-23T07:46:06;24.30;31.80
70986;DHT22;58645;43.068;25.610;2024-03-23T07:48:32;24.60;31.80
70986;DHT22;58645;43.068;25.610;2024-03-23T07:51:09;25.00;31.20
70986;DHT22;58645;43.068;25.610;2024-03-23T07:53:36;24.90;30.00
70986;DHT22;58645;43.068;25.610;2024-03-23T07:56:09;25.10;29.80
70986;DHT22;58645;43.068;25.610;2024-03-23T07:58:41;25.20;30.00
70986;DHT22;58645;43.068;25.610;2024-03-23T08:01:09;25.00;29.90
70986;DHT22;58645;43.068;25.610;2024-03-23T08:03:37;25.20;29.50
70986;DHT22;58645;43.068;25.610;2024-03-23T08:06:15;25.40;28.80
70986;DHT22;58645;43.068;25.610;2024-03-23T08:08:43;25.50;29.20
70986;DHT22;58645;43.068;25.610;2024-03-23T08:11:09;26.10;27.50
70986;DHT22;58645;43.068;25.610;2024-03-23T08:13:36;26.20;26.30
70986;DHT22;58645;43.068;25.610;2024-03-23T08:16:02;26.60;26.10
70986;DHT22;58645;43.068;25.610;2024-03-23T08:18:29;26.50;26.80
70986;DHT22;58645;43.068;25.610;2024-03-23T08:21:05;26.10;23.60
70986;DHT22;58645;43.068;25.610;2024-03-23T08:23:33;26.50;23.50
70986;DHT22;58645;43.068;25.610;2024-03-23T08:26:06;26.60;23.60
70986;DHT22;58645;43.068;25.610;2024-03-23T08:28:32;26.90;23.60
70986;DHT22;58645;43.068;25.610;2024-03-23T08:31:01;27.10;22.80
70986;DHT22;58645;43.068;25.610;2024-03-23T08:33:28;27.60;22.20
70986;DHT22;58645;43.068;25.610;2024-03-23T08:35:57;27.90;21.50
70986;DHT22;58645;43.068;25.610;2024-03-23T08:38:24;27.90;21.40
70986;DHT22;58645;43.068;25.610;2024-03-23T08:41:00;27.90;20.10
70986;DHT22;58645;43.068;25.610;2024-03-23T08:43:28;28.10;21.60
70986;DHT22;58645;43.068;25.610;2024-03-23T08:46:03;28.10;20.20
70986;DHT22;58645;43.068;25.610;2024-03-23T08:48:30;28.40;18.80
70986;DHT22;58645;43.068;25.610;2024-03-23T08:51:05;28.30;18.20
70986;DHT22;58645;43.068;25.610;2024-03-23T08:53:31;28.50;18.80
70986;DHT22;58645;43.068;25.610;2024-03-23T08:55:58;28.50;19.40
70986;DHT22;58645;43.068;25.610;2024-03-23T08:58:25;28.10;20.80
70986;DHT22;58645;43.068;25.610;2024-03-23T09:00:51;28.00;19.90
70986;DHT22;58645;43.068;25.610;2024-03-23T09:03:17;27.40;21.30
70986;DHT22;58645;43.068;25.610;2024-03-23T09:05:43;27.70;20.30
70986;DHT22;58645;43.068;25.610;2024-03-23T09:08:09;28.30;19.80
70986;DHT22;58645;43.068;25.610;2024-03-23T09:10:42;28.00;19.70
70986;DHT22;58645;43.068;25.610;2024-03-23T09:13:08;27.90;18.50
70986;DHT22;58645;43.068;25.610;2024-03-23T09:15:35;28.30;18.60
70986;DHT22;58645;43.068;25.610;2024-03-23T09:18:01;28.50;16.60
70986;DHT22;58645;43.068;25.610;2024-03-23T09:20:28;28.80;17.00
70986;DHT22;58645;43.068;25.610;2024-03-23T09:22:54;28.20;18.10
70986;DHT22;58645;43.068;25.610;2024-03-23T09:25:19;27.80;17.50
70986;DHT22;58645;43.068;25.610;2024-03-23T09:27:48;28.10;18.30
70986;DHT22;58645;43.068;25.610;2024-03-23T09:30:14;28.40;17.50
70986;DHT22;58645;43.068;25.610;2024-03-23T09:32:43;28.90;17.40
70986;DHT22;58645;43.068;25.610;2024-03-23T09:35:09;28.90;16.90
70986;DHT22;58645;43.068;25.610;2024-03-23T09:37:35;29.10;16.30
70986;DHT22;58645;43.068;25.610;2024-03-23T09:40:00;29.40;16.90
70986;DHT22;58645;43.068;25.610;2024-03-23T09:42:26;28.50;16.90
70986;DHT22;58645;43.068;25.610;2024-03-23T09:44:52;29.40;16.70
70986;DHT22;58645;43.068;25.610;2024-03-23T09:47:18;29.90;16.10
70986;DHT22;58645;43.068;25.610;2024-03-23T09:49:44;30.00;16.60
70986;DHT22;58645;43.068;25.610;2024-03-23T09:52:10;30.10;17.30
70986;DHT22;58645;43.068;25.610;2024-03-23T09:54:36;29.90;14.40
70986;DHT22;58645;43.068;25.610;2024-03-23T09:57:01;28.90;15.50
70986;DHT22;58645;43.068;25.610;2024-03-23T09:59:29;29.20;17.60
70986;DHT22;58645;43.068;25.610;2024-03-23T10:01:55;28.70;16.00
70986;DHT22;58645;43.068;25.610;2024-03-23T10:04:41;28.90;16.00
70986;DHT22;58645;43.068;25.610;2024-03-23T10:07:14;28.80;15.60
70986;DHT22;58645;43.068;25.610;2024-03-23T10:09:42;28.90;15.70
70986;DHT22;58645;43.068;25.610;2024-03-23T10:12:16;29.40;16.00
70986;DHT22;58645;43.068;25.610;2024-03-23T10:14:42;29.70;16.60
70986;DHT22;58645;43.068;25.610;2024-03-23T10:19:40;29.90;14.90
70986;DHT22;58645;43.068;25.610;2024-03-23T10:22:07;29.40;15.20
70986;DHT22;58645;43.068;25.610;2024-03-23T10:24:33;29.40;17.10
70986;DHT22;58645;43.068;25.610;2024-03-23T10:26:59;29.60;15.10
70986;DHT22;58645;43.068;25.610;2024-03-23T10:29:25;29.50;15.40
70986;DHT22;58645;43.068;25.610;2024-03-23T10:31:53;29.80;15.60
70986;DHT22;58645;43.068;25.610;2024-03-23T10:34:25;29.90;14.60
70986;DHT22;58645;43.068;25.610;2024-03-23T10:36:53;29.70;15.50
70986;DHT22;58645;43.068;25.610;2024-03-23T10:39:21;29.40;15.70
70986;DHT22;58645;43.068;25.610;2024-03-23T10:41:49;29.50;15.90
70986;DHT22;58645;43.068;25.610;2024-03-23T10:44:17;29.50;15.20
70986;DHT22;58645;43.068;25.610;2024-03-23T10:46:45;29.50;16.60
70986;DHT22;58645;43.068;25.610;2024-03-23T10:49:10;30.00;16.20
70986;DHT22;58645;43.068;25.610;2024-03-23T10:51:37;30.00;16.00
70986;DHT22;58645;43.068;25.610;2024-03-23T10:54:04;30.10;15.00
70986;DHT22;58645;43.068;25.610;2024-03-23T10:56:34;29.80;14.60
70986;DHT22;58645;43.068;25.610;2024-03-23T10:59:02;29.90;16.20
70986;DHT22;58645;43.068;25.610;2024-03-23T11:01:29;29.60;14.90
70986;DHT22;58645;43.068;25.610;2024-03-23T11:03:55;29.80;15.00
70986;DHT22;58645;43.068;25.610;2024-03-23T11:06:37;28.60;14.80
70986;DHT22;58645;43.068;25.610;2024-03-23T11:09:03;27.80;15.20
70986;DHT22;58645;43.068;25.610;2024-03-23T11:11:29;27.60;18.00
70986;DHT22;58645;43.068;25.610;2024-03-23T11:13:58;27.50;16.30
70986;DHT22;58645;43.068;25.610;2024-03-23T11:16:26;27.90;16.80
70986;DHT22;58645;43.068;25.610;2024-03-23T11:19:35;28.30;18.70
70986;DHT22;58645;43.068;25.610;2024-03-23T11:22:05;28.60;17.30
70986;DHT22;58645;43.068;25.610;2024-03-23T11:24:31;28.90;16.60
70986;DHT22;58645;43.068;25.610;2024-03-23T11:26:57;29.10;16.20
70986;DHT22;58645;43.068;25.610;2024-03-23T11:29:27;28.60;15.30
70986;DHT22;58645;43.068;25.610;2024-03-23T11:31:53;28.50;17.00
70986;DHT22;58645;43.068;25.610;2024-03-23T11:34:20;28.50;16.60
70986;DHT22;58645;43.068;25.610;2024-03-23T11:36:46;28.40;15.80
70986;DHT22;58645;43.068;25.610;2024-03-23T11:39:17;28.60;15.40
70986;DHT22;58645;43.068;25.610;2024-03-23T11:41:49;28.70;15.70
70986;DHT22;58645;43.068;25.610;2024-03-23T11:46:45;28.40;16.30
70986;DHT22;58645;43.068;25.610;2024-03-23T11:49:24;28.30;16.60
70986;DHT22;58645;43.068;25.610;2024-03-23T11:51:51;27.60;15.70
70986;DHT22;58645;43.068;25.610;2024-03-23T11:54:24;27.30;18.30
70986;DHT22;58645;43.068;25.610;2024-03-23T11:56:57;28.00;16.50
70986;DHT22;58645;43.068;25.610;2024-03-23T11:59:37;28.50;15.60
70986;DHT22;58645;43.068;25.610;2024-03-23T12:02:10;28.60;16.40
70986;DHT22;58645;43.068;25.610;2024-03-23T12:04:37;28.70;14.70
70986;DHT22;58645;43.068;25.610;2024-03-23T12:07:17;28.50;15.60
70986;DHT22;58645;43.068;25.610;2024-03-23T12:09:46;28.10;15.30
70986;DHT22;58645;43.068;25.610;2024-03-23T12:12:17;27.70;15.70
70986;DHT22;58645;43.068;25.610;2024-03-23T12:14:43;27.50;17.10
70986;DHT22;58645;43.068;25.610;2024-03-23T12:17:14;27.80;16.80
70986;DHT22;58645;43.068;25.610;2024-03-23T12:19:41;27.30;16.20
70986;DHT22;58645;43.068;25.610;2024-03-23T12:22:08;27.50;17.50
70986;DHT22;58645;43.068;25.610;2024-03-23T12:24:34;27.60;17.30
70986;DHT22;58645;43.068;25.610;2024-03-23T12:27:04;27.40;17.30
70986;DHT22;58645;43.068;25.610;2024-03-23T12:29:32;27.30;18.50
70986;DHT22;58645;43.068;25.610;2024-03-23T12:32:02;26.90;18.20
70986;DHT22;58645;43.068;25.610;2024-03-23T12:34:28;27.00;19.10
70986;DHT22;58645;43.068;25.610;2024-03-23T12:36:55;27.00;18.00
70986;DHT22;58645;43.068;25.610;2024-03-23T12:39:21;27.10;18.30
70986;DHT22;58645;43.068;25.610;2024-03-23T12:41:48;27.60;17.70
70986;DHT22;58645;43.068;25.610;2024-03-23T12:44:14;27.40;17.70
70986;DHT22;58645;43.068;25.610;2024-03-23T12:46:41;27.50;18.70
70986;DHT22;58645;43.068;25.610;2024-03-23T12:49:07;27.30;18.00
70986;DHT22;58645;43.068;25.610;2024-03-23T12:51:33;26.80;17.90
70986;DHT22;58645;43.068;25.610;2024-03-23T12:53:59;26.00;19.10
70986;DHT22;58645;43.068;25.610;2024-03-23T12:56:25;25.70;19.70
70986;DHT22;58645;43.068;25.610;2024-03-23T12:58:50;25.10;20.90
70986;DHT22;58645;43.068;25.610;2024-03-23T13:01:20;24.10;21.10
70986;DHT22;58645;43.068;25.610;2024-03-23T13:03:50;23.20;22.70
70986;DHT22;58645;43.068;25.610;2024-03-23T13:06:19;22.70;23.10
70986;DHT22;58645;43.068;25.610;2024-03-23T13:08:45;22.30;24.10
70986;DHT22;58645;43.068;25.610;2024-03-23T13:11:12;21.80;24.50
70986;DHT22;58645;43.068;25.610;2024-03-23T13:13:38;21.70;25.40
70986;DHT22;58645;43.068;25.610;2024-03-23T13:16:04;21.50;26.20
70986;DHT22;58645;43.068;25.610;2024-03-23T13:18:31;21.20;25.30
70986;DHT22;58645;43.068;25.610;2024-03-23T13:20:57;21.00;26.00
70986;DHT22;58645;43.068;25.610;2024-03-23T13:23:23;20.80;27.10
70986;DHT22;58645;43.068;25.610;2024-03-23T13:25:53;20.70;26.10
70986;DHT22;58645;43.068;25.610;2024-03-23T13:28:22;20.50;26.70
70986;DHT22;58645;43.068;25.610;2024-03-23T13:30:56;20.40;27.00
70986;DHT22;58645;43.068;25.610;2024-03-23T13:33:23;20.40;26.80
70986;DHT22;58645;43.068;25.610;2024-03-23T13:35:53;20.40;27.20
70986;DHT22;58645;43.068;25.610;2024-03-23T13:38:19;20.20;27.50
70986;DHT22;58645;43.068;25.610;2024-03-23T13:40:55;20.10;27.90
70986;DHT22;58645;43.068;25.610;2024-03-23T13:43:23;20.10;28.70
70986;DHT22;58645;43.068;25.610;2024-03-23T13:45:51;20.10;28.60
70986;DHT22;58645;43.068;25.610;2024-03-23T13:48:20;20.10;28.10
70986;DHT22;58645;43.068;25.610;2024-03-23T13:50:46;20.10;29.00
70986;DHT22;58645;43.068;25.610;2024-03-23T13:53:14;20.00;28.00
70986;DHT22;58645;43.068;25.610;2024-03-23T13:55:47;20.00;28.60
70986;DHT22;58645;43.068;25.610;2024-03-23T13:58:14;19.90;28.30
70986;DHT22;58645;43.068;25.610;2024-03-23T14:00:40;19.80;28.40
70986;DHT22;58645;43.068;25.610;2024-03-23T14:03:05;19.80;28.20
70986;DHT22;58645;43.068;25.610;2024-03-23T14:05:31;19.80;28.70
70986;DHT22;58645;43.068;25.610;2024-03-23T14:07:57;19.50;29.00
70986;DHT22;58645;43.068;25.610;2024-03-23T14:10:22;19.50;29.60
70986;DHT22;58645;43.068;25.610;2024-03-23T14:12:48;19.30;30.20
70986;DHT22;58645;43.068;25.610;2024-03-23T14:15:14;19.10;30.40
70986;DHT22;58645;43.068;25.610;2024-03-23T14:17:40;19.10;30.70
70986;DHT22;58645;43.068;25.610;2024-03-23T14:20:06;19.10;30.80
70986;DHT22;58645;43.068;25.610;2024-03-23T14:22:34;19.10;30.90
70986;DHT22;58645;43.068;25.610;2024-03-23T14:25:00;19.10;31.20
70986;DHT22;58645;43.068;25.610;2024-03-23T14:27:26;19.10;30.40
70986;DHT22;58645;43.068;25.610;2024-03-23T14:29:51;19.10;31.10
70986;DHT22;58645;43.068;25.610;2024-03-23T14:32:17;19.00;30.20
70986;DHT22;58645;43.068;25.610;2024-03-23T14:34:43;19.00;30.50
70986;DHT22;58645;43.068;25.610;2024-03-23T14:37:09;19.00;30.60
70986;DHT22;58645;43.068;25.610;2024-03-23T14:39:34;19.00;31.10
70986;DHT22;58645;43.068;25.610;2024-03-23T14:42:01;19.00;31.20
70986;DHT22;58645;43.068;25.610;2024-03-23T14:44:28;19.00;31.20
70986;DHT22;58645;43.068;25.610;2024-03-23T14:46:54;19.00;31.30
70986;DHT22;58645;43.068;25.610;2024-03-23T14:49:21;19.00;31.20
70986;DHT22;58645;43.068;25.610;2024-03-23T14:51:46;19.00;31.30
70986;DHT22;58645;43.068;25.610;2024-03-23T14:54:12;19.00;31.10
70986;DHT22;58645;43.068;25.610;2024-03-23T14:56:38;18.90;31.20
70986;DHT22;58645;43.068;25.610;2024-03-23T14:59:04;18.80;31.50
70986;DHT22;58645;43.068;25.610;2024-03-23T15:01:31;18.60;31.50
70986;DHT22;58645;43.068;25.610;2024-03-23T15:03:57;18.50;31.70
70986;DHT22;58645;43.068;25.610;2024-03-23T15:06:23;18.50;31.90
70986;DHT22;58645;43.068;25.610;2024-03-23T15:08:48;18.50;32.10
70986;DHT22;58645;43.068;25.610;2024-03-23T15:11:14;18.30;31.50
70986;DHT22;58645;43.068;25.610;2024-03-23T15:13:43;18.30;31.50
70986;DHT22;58645;43.068;25.610;2024-03-23T15:16:09;18.30;31.80
70986;DHT22;58645;43.068;25.610;2024-03-23T15:18:35;18.20;31.80
70986;DHT22;58645;43.068;25.610;2024-03-23T15:21:02;18.20;31.70
70986;DHT22;58645;43.068;25.610;2024-03-23T15:23:31;18.10;32.20
70986;DHT22;58645;43.068;25.610;2024-03-23T15:26:01;18.10;32.30
70986;DHT22;58645;43.068;25.610;2024-03-23T15:28:27;18.10;32.40
70986;DHT22;58645;43.068;25.610;2024-03-23T15:31:14;18.10;32.70
70986;DHT22;58645;43.068;25.610;2024-03-23T15:33:39;18.10;32.90
70986;DHT22;58645;43.068;25.610;2024-03-23T15:36:06;18.00;33.10
70986;DHT22;58645;43.068;25.610;2024-03-23T15:38:32;18.00;33.00
70986;DHT22;58645;43.068;25.610;2024-03-23T15:40:59;18.00;33.40
70986;DHT22;58645;43.068;25.610;2024-03-23T15:43:25;17.90;33.40
70986;DHT22;58645;43.068;25.610;2024-03-23T15:45:56;17.90;33.30
70986;DHT22;58645;43.068;25.610;2024-03-23T15:48:22;17.80;33.30
70986;DHT22;58645;43.068;25.610;2024-03-23T15:50:52;17.70;33.60
70986;DHT22;58645;43.068;25.610;2024-03-23T15:53:19;17.70;33.90
70986;DHT22;58645;43.068;25.610;2024-03-23T15:55:45;17.60;34.30
70986;DHT22;58645;43.068;25.610;2024-03-23T15:58:11;17.50;34.30
70986;DHT22;58645;43.068;25.610;2024-03-23T16:00:38;17.50;34.50
70986;DHT22;58645;43.068;25.610;2024-03-23T16:03:03;17.40;34.50
70986;DHT22;58645;43.068;25.610;2024-03-23T16:05:29;17.40;34.80
70986;DHT22;58645;43.068;25.610;2024-03-23T16:07:55;17.30;35.20
70986;DHT22;58645;43.068;25.610;2024-03-23T16:10:21;17.20;35.10
70986;DHT22;58645;43.068;25.610;2024-03-23T16:12:47;17.10;35.60
70986;DHT22;58645;43.068;25.610;2024-03-23T16:15:13;17.00;35.60
70986;DHT22;58645;43.068;25.610;2024-03-23T16:17:40;16.90;36.10
70986;DHT22;58645;43.068;25.610;2024-03-23T16:20:06;16.80;36.30